Time;durP1;ratioP1;P1;durP2;ratioP2;P2;SDS_P1;SDS_P2;PMS_P1;PMS_P2;Temp;Humidity;BMP_temperature;BMP_pressure;BME280_temperature;BME280_humidity;BME280_pressure;Samples;Min_cycle;Max_cycle;Signal;HPM_P1;HPM_P2
2023/02/24 00:01:58;;;;;;;6.78;4.93;;;4.80;51.60;;;;;;5083772;28;20055;-73
2023/02/24 00:04:25;;;;;;;9.60;5.78;;;4.70;51.50;;;;;;5082894;28;20587;-73
2023/02/24 00:06:51;;;;;;;9.15;5.00;;;4.70;51.60;;;;;;5080194;28;20478;-74
2023/02/24 00:09:21;;;;;;;8.43;4.80;;;4.70;51.70;;;;;;5084350;28;20057;-74
2023/02/24 00:11:56;;;;;;;8.52;5.60;;;4.60;51.50;;;;;;5078695;28;20432;-75
2023/02/24 00:14:24;;;;;;;6.03;4.60;;;4.60;51.50;;;;;;5074068;28;20040;-76
2023/02/24 00:16:52;;;;;;;8.52;5.63;;;4.60;51.50;;;;;;5083897;28;20105;-74
2023/02/24 00:19:22;;;;;;;7.05;5.57;;;4.50;51.40;;;;;;5084591;28;20055;-73
2023/02/24 00:21:50;;;;;;;6.90;5.38;;;4.50;51.50;;;;;;5076535;28;20426;-74
2023/02/24 00:24:16;;;;;;;7.32;5.40;;;4.50;51.50;;;;;;5084249;28;20509;-75
2023/02/24 00:26:44;;;;;;;11.23;6.50;;;4.40;51.40;;;;;;5083609;28;20524;-74
2023/02/24 00:29:12;;;;;;;8.68;6.72;;;4.40;51.40;;;;;;5079473;28;20047;-73
2023/02/24 00:31:40;;;;;;;9.05;6.15;;;4.40;51.50;;;;;;5075351;28;20028;-74
2023/02/24 00:34:08;;;;;;;7.78;5.25;;;4.40;51.50;;;;;;5084065;28;20269;-74
2023/02/24 00:36:34;;;;;;;10.35;6.68;;;4.40;51.50;;;;;;5078066;28;20032;-75
2023/02/24 00:39:08;;;;;;;7.30;5.90;;;4.40;51.60;;;;;;5080181;28;20357;-74
2023/02/24 00:41:37;;;;;;;11.70;6.97;;;4.30;51.40;;;;;;5082354;28;20048;-74
2023/02/24 00:44:06;;;;;;;9.27;5.97;;;4.30;51.40;;;;;;5082082;28;20032;-75
2023/02/24 00:46:37;;;;;;;8.85;6.25;;;4.30;51.40;;;;;;5082191;28;20032;-74
2023/02/24 00:49:09;;;;;;;8.93;6.60;;;4.30;51.50;;;;;;5078434;28;20024;-74
2023/02/24 00:51:39;;;;;;;7.72;5.78;;;4.30;51.50;;;;;;5064447;28;20192;-74
2023/02/24 00:54:05;;;;;;;8.23;5.82;;;4.20;51.40;;;;;;5081576;28;20278;-74
2023/02/24 00:56:32;;;;;;;7.85;5.53;;;4.20;51.40;;;;;;5084175;28;20035;-74
2023/02/24 00:58:59;;;;;;;8.27;5.97;;;4.10;51.30;;;;;;5079752;28;20100;-74
2023/02/24 01:01:31;;;;;;;9.43;5.95;;;4.10;51.40;;;;;;5078864;28;20083;-74
2023/02/24 01:04:04;;;;;;;9.77;6.40;;;4.10;51.50;;;;;;5079371;28;20111;-73
2023/02/24 01:06:32;;;;;;;10.55;6.43;;;4.10;51.40;;;;;;5084333;28;20020;-75
2023/02/24 01:08:59;;;;;;;9.30;7.53;;;4.10;51.50;;;;;;5079806;28;20040;-75
2023/02/24 01:14:18;;;;;;;9.93;5.82;;;4.00;51.40;;;;;;5081320;28;20028;-74
2023/02/24 01:16:49;;;;;;;12.35;6.57;;;4.00;51.40;;;;;;5082332;28;20069;-74
2023/02/24 01:19:21;;;;;;;8.55;6.43;;;4.00;51.40;;;;;;5079901;28;20028;-74
2023/02/24 01:21:53;;;;;;;9.85;6.47;;;4.00;51.50;;;;;;5071758;28;20040;-75
2023/02/24 01:24:24;;;;;;;10.27;6.63;;;4.00;51.50;;;;;;5082744;28;20058;-73
2023/02/24 01:26:50;;;;;;;8.05;6.68;;;4.00;51.50;;;;;;5081551;28;20123;-74
2023/02/24 01:29:16;;;;;;;7.60;5.70;;;3.90;51.30;;;;;;5078696;28;20032;-75
2023/02/24 01:31:43;;;;;;;10.40;6.38;;;3.90;51.30;;;;;;5094344;28;20028;-75
2023/02/24 01:34:11;;;;;;;8.02;5.78;;;3.90;51.30;;;;;;5079775;28;20039;-75
2023/02/24 01:36:40;;;;;;;9.25;5.78;;;3.90;51.40;;;;;;5083723;28;20028;-75
2023/02/24 01:39:09;;;;;;;9.95;6.47;;;3.90;51.40;;;;;;5077470;28;20028;-74
2023/02/24 01:41:42;;;;;;;9.85;6.30;;;3.90;51.40;;;;;;5080370;28;20464;-74
2023/02/24 01:44:13;;;;;;;8.15;5.93;;;3.80;51.30;;;;;;5080028;28;20122;-73
2023/02/24 01:46:45;;;;;;;8.35;5.97;;;3.80;51.30;;;;;;5081419;28;20040;-73
2023/02/24 01:49:28;;;;;;;11.13;6.53;;;3.80;51.40;;;;;;5081544;28;20089;-74
2023/02/24 01:52:00;;;;;;;;;;;3.80;51.40;;;;;;5083320;28;20028;-73
2023/02/24 01:54:38;;;;;;;7.67;5.57;;;3.80;51.40;;;;;;5058352;28;20373;-74
2023/02/24 01:57:06;;;;;;;9.32;5.57;;;3.80;51.40;;;;;;5082211;28;20047;-73
2023/02/24 01:59:37;;;;;;;8.65;5.70;;;3.80;51.30;;;;;;5074643;28;20017;-72
2023/02/24 02:02:06;;;;;;;8.05;5.80;;;3.80;51.40;;;;;;5081484;28;20177;-73
2023/02/24 02:04:43;;;;;;;7.22;4.88;;;3.70;51.30;;;;;;5081636;28;20118;-73
2023/02/24 02:07:16;;;;;;;9.60;5.05;;;3.70;51.30;;;;;;5081452;28;20044;-73
2023/02/24 02:09:44;;;;;;;9.30;6.55;;;3.70;51.30;;;;;;5076722;28;20032;-74
2023/02/24 02:12:10;;;;;;;7.90;5.53;;;3.70;51.30;;;;;;5079639;28;20047;-75
2023/02/24 02:14:51;;;;;;;9.70;5.57;;;3.80;51.50;;;;;;5080034;28;20557;-73
2023/02/24 02:17:45;;;;;;;6.40;5.43;;;3.70;51.40;;;;;;5078606;28;20042;-73
2023/02/24 02:20:21;;;;;;;13.95;5.22;;;3.80;51.50;;;;;;5081019;28;20093;-73
2023/02/24 02:23:14;;;;;;;7.03;5.47;;;3.80;51.50;;;;;;5087410;28;20024;-76
2023/02/24 02:25:54;;;;;;;;;;;3.80;51.40;;;;;;5077763;28;20038;-74
2023/02/24 02:28:41;;;;;;;6.75;4.68;;;3.90;51.50;;;;;;5103090;28;19914;-73
2023/02/24 02:31:28;;;;;;;5.85;4.97;;;3.90;51.40;;;;;;5102555;28;20036;-74
2023/02/24 02:34:10;;;;;;;7.10;5.30;;;3.90;51.40;;;;;;5101963;28;20210;-73
2023/02/24 02:37:04;;;;;;;10.13;6.13;;;3.90;51.40;;;;;;5098026;28;20047;-73
2023/02/24 02:39:57;;;;;;;5.72;4.55;;;4.00;51.60;;;;;;5095177;28;20040;-74
2023/02/24 02:42:34;;;;;;;8.95;5.25;;;4.00;51.60;;;;;;5088209;28;20070;-73
2023/02/24 02:45:13;;;;;;;7.13;5.13;;;4.00;51.60;;;;;;5076695;28;20046;-74
2023/02/24 02:48:00;;;;;;;6.07;4.50;;;4.00;51.60;;;;;;5049631;23;20073;-85
2023/02/24 02:50:31;;;;;;;7.70;5.00;;;4.00;51.60;;;;;;5048288;28;20041;-84
2023/02/24 02:53:01;;;;;;;7.80;5.00;;;4.00;51.60;;;;;;5047344;28;20037;-83
2023/02/24 02:55:50;;;;;;;8.50;5.78;;;4.00;51.60;;;;;;5049039;28;20040;-82
2023/02/24 02:58:25;;;;;;;6.68;4.57;;;4.10;51.90;;;;;;5038895;28;20452;-80
2023/02/24 03:01:01;;;;;;;8.93;5.35;;;4.10;51.80;;;;;;5046369;28;20097;-80
2023/02/24 03:03:37;;;;;;;9.55;5.03;;;4.00;51.60;;;;;;5030567;28;20067;-80
2023/02/24 03:06:27;;;;;;;5.57;4.78;;;4.10;51.80;;;;;;5062030;28;20029;-81
2023/02/24 03:09:17;;;;;;;9.98;4.43;;;4.10;51.80;;;;;;5047818;28;20060;-80
2023/02/24 03:11:52;;;;;;;9.30;4.70;;;4.10;51.80;;;;;;5040311;28;20366;-80
2023/02/24 03:14:23;;;;;;;8.00;4.55;;;4.10;51.80;;;;;;5025099;28;20029;-81
2023/02/24 03:16:50;;;;;;;7.43;4.40;;;4.20;52.00;;;;;;5047904;28;20040;-81
2023/02/24 03:19:25;;;;;;;10.10;4.95;;;4.20;51.90;;;;;;5047339;28;20086;-80
2023/02/24 03:22:12;;;;;;;5.70;4.57;;;4.20;51.90;;;;;;5047770;28;20049;-78
2023/02/24 03:24:40;;;;;;;6.07;3.83;;;4.20;52.00;;;;;;5057888;28;20036;-80
2023/02/24 03:27:26;;;;;;;6.20;4.32;;;4.20;51.90;;;;;;5047553;28;20116;-80
2023/02/24 03:29:59;;;;;;;6.18;4.53;;;4.30;52.10;;;;;;5040595;28;20033;-79
2023/02/24 03:32:42;;;;;;;7.63;5.25;;;4.30;52.00;;;;;;5027618;28;20056;-79
2023/02/24 03:35:37;;;;;;;7.20;4.43;;;4.30;52.00;;;;;;5027448;28;20035;-80
2023/02/24 03:38:05;;;;;;;10.73;5.13;;;4.30;52.00;;;;;;5025388;28;20048;-80
2023/02/24 03:40:34;;;;;;;7.40;4.55;;;4.30;52.00;;;;;;5025804;28;20033;-80
2023/02/24 03:43:30;;;;;;;8.45;4.70;;;4.30;52.00;;;;;;5038880;28;20068;-79
2023/02/24 03:46:00;;;;;;;9.20;5.55;;;4.30;52.00;;;;;;5026420;28;20045;-80
2023/02/24 03:48:28;;;;;;;8.48;4.75;;;4.40;52.20;;;;;;5025664;28;20435;-82
2023/02/24 03:50:58;;;;;;;7.13;4.90;;;4.40;52.10;;;;;;5040899;28;20029;-83
2023/02/24 03:54:02;;;;;;;5.13;4.10;;;4.40;52.10;;;;;;5025130;28;20052;-83
2023/02/24 03:56:45;;;;;;;11.68;5.22;;;4.50;52.30;;;;;;5026496;28;20029;-82
2023/02/24 03:59:24;;;;;;;11.80;4.55;;;4.50;52.30;;;;;;5016657;28;20520;-81
2023/02/24 04:01:56;;;;;;;7.20;4.43;;;4.40;52.10;;;;;;5024285;28;20071;-82
2023/02/24 04:04:53;;;;;;;6.78;4.70;;;4.50;52.30;;;;;;5025591;28;20030;-81
2023/02/24 04:07:56;;;;;;;7.88;4.28;;;4.50;52.40;;;;;;5024978;28;20553;-82
2023/02/24 04:10:51;;;;;;;6.53;4.60;;;4.50;52.30;;;;;;5026111;28;20493;-83
2023/02/24 04:13:42;;;;;;;7.90;5.10;;;4.60;52.40;;;;;;5021905;28;20029;-83
2023/02/24 04:16:17;;;;;;;6.63;4.72;;;4.60;52.40;;;;;;5026125;28;20029;-83
2023/02/24 04:18:49;;;;;;;5.75;4.07;;;4.60;52.30;;;;;;5039368;28;20029;-84
2023/02/24 04:21:17;;;;;;;5.75;4.60;;;4.70;52.60;;;;;;5025934;28;20120;-85
2023/02/24 04:23:44;;;;;;;5.55;4.15;;;4.70;52.60;;;;;;5040569;28;20536;-84
2023/02/24 04:26:12;;;;;;;7.63;4.50;;;4.70;52.50;;;;;;5027746;28;20037;-83
2023/02/24 04:28:41;;;;;;;8.75;4.88;;;4.70;52.60;;;;;;5023223;28;20072;-84
2023/02/24 04:31:15;;;;;;;5.82;4.70;;;4.70;52.60;;;;;;5025749;28;20516;-84
2023/02/24 04:33:42;;;;;;;6.10;4.85;;;4.80;52.70;;;;;;5041291;28;20056;-83
2023/02/24 04:36:11;;;;;;;5.85;4.32;;;4.70;52.50;;;;;;5041333;28;20116;-83
2023/02/24 04:38:38;;;;;;;7.75;5.10;;;4.80;52.70;;;;;;5024910;28;20037;-82
2023/02/24 04:41:05;;;;;;;5.47;4.32;;;4.80;52.80;;;;;;5025937;28;20274;-85
2023/02/24 04:43:31;;;;;;;5.35;4.22;;;4.80;53.30;;;;;;5006873;28;20265;-84
2023/02/24 04:45:57;;;;;;;5.03;4.25;;;4.80;52.80;;;;;;5020795;28;20082;-84
2023/02/24 04:48:23;;;;;;;8.65;4.90;;;4.80;52.80;;;;;;5026641;28;20111;-84
2023/02/24 04:50:53;;;;;;;7.60;4.38;;;4.80;52.80;;;;;;5026070;28;20034;-82
2023/02/24 04:53:25;;;;;;;5.97;4.13;;;4.80;52.80;;;;;;5027303;28;20060;-83
2023/02/24 04:55:52;;;;;;;7.73;4.43;;;4.80;53.40;;;;;;5042805;28;20029;-83
2023/02/24 04:58:20;;;;;;;5.55;4.07;;;4.80;52.80;;;;;;5023727;28;20108;-81
2023/02/24 05:00:51;;;;;;;5.38;3.92;;;4.90;53.00;;;;;;5042269;28;20060;-81
2023/02/24 05:03:18;;;;;;;6.45;4.38;;;4.80;52.80;;;;;;5037858;28;20393;-81
2023/02/24 05:05:57;;;;;;;5.82;4.35;;;4.90;53.10;;;;;;5025028;28;20449;-81
2023/02/24 05:08:23;;;;;;;7.22;4.10;;;4.90;53.10;;;;;;5026843;28;20059;-81
2023/02/24 05:10:50;;;;;;;5.18;3.92;;;4.90;53.10;;;;;;5027005;28;20037;-84
2023/02/24 05:13:26;;;;;;;7.55;4.80;;;4.90;53.10;;;;;;5023970;28;20017;-82
2023/02/24 05:15:56;;;;;;;6.70;4.20;;;4.90;53.10;;;;;;5020574;28;20037;-84
2023/02/24 05:18:23;;;;;;;7.07;4.80;;;4.90;53.10;;;;;;5025899;28;20436;-82
2023/02/24 05:23:44;;;;;;;5.97;4.15;;;4.90;53.10;;;;;;5027526;28;20095;-83
2023/02/24 05:26:15;;;;;;;5.18;4.20;;;4.90;53.20;;;;;;5024205;28;20186;-82
2023/02/24 05:28:43;;;;;;;7.80;4.72;;;4.90;53.20;;;;;;5017768;28;20045;-82
2023/02/24 05:31:13;;;;;;;6.97;4.55;;;4.90;53.20;;;;;;5025713;28;20275;-81
2023/02/24 05:33:45;;;;;;;6.28;4.45;;;4.90;53.20;;;;;;5023147;28;20045;-81
2023/02/24 05:36:16;;;;;;;7.78;4.30;;;4.90;53.20;;;;;;5024432;28;20040;-81
2023/02/24 05:38:47;;;;;;;5.85;4.50;;;5.00;53.40;;;;;;5025936;28;20042;-81
2023/02/24 05:41:16;;;;;;;6.25;4.93;;;4.90;53.30;;;;;;5008677;28;20140;-81
2023/02/24 05:43:53;;;;;;;9.00;5.32;;;5.00;53.50;;;;;;5035818;28;20068;-82
2023/02/24 05:46:28;;;;;;;6.10;4.28;;;4.90;53.30;;;;;;5020500;28;20636;-82
2023/02/24 05:49:00;;;;;;;6.25;4.50;;;5.00;53.50;;;;;;5020140;28;20083;-82
2023/02/24 05:51:35;;;;;;;5.93;4.55;;;5.00;53.50;;;;;;5036212;28;20036;-82
2023/02/24 05:54:03;;;;;;;8.27;4.38;;;5.00;53.50;;;;;;5017347;28;20029;-80
2023/02/24 05:56:31;;;;;;;7.47;4.93;;;4.90;53.40;;;;;;5021215;28;20567;-82
2023/02/24 05:59:02;;;;;;;6.72;4.57;;;5.00;53.60;;;;;;5017020;28;20186;-80
2023/02/24 06:01:29;;;;;;;7.65;3.90;;;4.90;53.40;;;;;;5021084;28;20037;-80
2023/02/24 06:04:04;;;;;;;10.25;4.53;;;5.00;53.70;;;;;;5024899;28;20021;-79
2023/02/24 06:06:36;;;;;;;7.18;4.38;;;4.90;53.50;;;;;;5023436;28;20029;-80
2023/02/24 06:09:11;;;;;;;8.40;4.30;;;4.90;53.50;;;;;;5025449;28;20053;-82
2023/02/24 06:11:40;;;;;;;8.20;4.53;;;4.90;53.50;;;;;;5020759;28;20116;-80
2023/02/24 06:14:07;;;;;;;6.28;4.53;;;5.00;53.70;;;;;;5024750;28;20307;-81
2023/02/24 06:16:35;;;;;;;6.82;5.25;;;4.90;53.50;;;;;;5016134;28;20112;-84
2023/02/24 06:19:01;;;;;;;10.00;5.00;;;4.90;53.50;;;;;;5025983;28;20120;-83
2023/02/24 06:21:30;;;;;;;5.65;4.03;;;4.90;53.60;;;;;;5025604;28;20315;-83
2023/02/24 06:23:57;;;;;;;8.15;4.07;;;4.90;53.60;;;;;;5024597;28;20131;-84
2023/02/24 06:26:28;;;;;;;10.52;4.75;;;4.90;53.60;;;;;;5025933;28;20188;-81
2023/02/24 06:28:58;;;;;;;7.30;4.22;;;4.90;53.70;;;;;;5020875;28;20116;-83
2023/02/24 06:31:26;;;;;;;6.25;4.50;;;4.90;53.60;;;;;;5024322;28;20096;-82
2023/02/24 06:33:52;;;;;;;8.38;4.35;;;5.00;53.80;;;;;;5029282;28;20122;-78
2023/02/24 06:36:19;;;;;;;5.68;3.85;;;4.90;53.60;;;;;;5023662;28;20557;-83
2023/02/24 06:38:45;;;;;;;6.03;3.90;;;5.00;53.80;;;;;;5020665;28;20022;-82
2023/02/24 06:41:12;;;;;;;7.47;3.20;;;5.00;53.90;;;;;;5021500;28;20042;-82
2023/02/24 06:43:40;;;;;;;5.50;3.50;;;5.00;53.90;;;;;;5022164;28;20037;-84
2023/02/24 06:46:06;;;;;;;6.78;3.30;;;5.00;53.90;;;;;;5022173;28;20075;-79
2023/02/24 06:48:33;;;;;;;5.20;3.40;;;4.90;53.70;;;;;;5024782;28;20577;-85
2023/02/24 06:51:04;;;;;;;7.10;3.35;;;4.90;53.70;;;;;;5018927;28;20045;-86
2023/02/24 06:53:33;;;;;;;5.88;3.60;;;5.00;53.90;;;;;;5013568;28;20045;-85
2023/02/24 06:56:05;;;;;;;7.30;3.97;;;4.90;53.70;;;;;;5022179;28;20596;-85
2023/02/24 06:58:32;;;;;;;10.32;4.18;;;5.00;53.90;;;;;;5024920;28;20037;-80
2023/02/24 07:00:58;;;;;;;9.43;4.50;;;4.90;53.70;;;;;;5020363;28;20528;-85
2023/02/24 07:03:38;;;;;;;8.43;4.22;;;4.90;53.70;;;;;;5033742;28;20041;-79
2023/02/24 07:06:22;;;;;;;5.50;4.00;;;4.90;53.70;;;;;;5019104;28;20030;-79
2023/02/24 07:08:50;;;;;;;7.72;4.68;;;5.00;54.10;;;;;;5020687;28;20515;-79
2023/02/24 07:11:17;;;;;;;12.02;4.10;;;5.00;54.40;;;;;;5019615;28;20553;-79
2023/02/24 07:13:47;;;;;;;9.52;4.60;;;5.10;54.80;;;;;;5018967;28;20061;-77
2023/02/24 07:16:16;;;;;;;9.18;4.15;;;5.30;55.40;;;;;;5019841;28;20032;-79
2023/02/24 07:18:47;;;;;;;8.98;4.18;;;5.40;55.70;;;;;;5019327;28;20048;-76
2023/02/24 07:21:15;;;;;;;5.63;4.43;;;5.50;55.90;;;;;;5019843;28;20030;-76
2023/02/24 07:23:48;;;;;;;9.02;4.25;;;5.70;56.40;;;;;;5017273;28;20443;-77
2023/02/24 07:26:21;;;;;;;11.32;4.53;;;5.80;56.60;;;;;;5013651;28;20037;-77
2023/02/24 07:28:48;;;;;;;9.73;4.18;;;6.00;57.00;;;;;;5017398;28;20037;-78
2023/02/24 07:31:16;;;;;;;8.02;3.60;;;6.20;57.30;;;;;;5032249;28;20509;-78
2023/02/24 07:33:46;;;;;;;6.85;3.70;;;6.30;57.50;;;;;;5020806;28;20501;-78
2023/02/24 07:36:14;;;;;;;6.80;3.83;;;6.40;57.60;;;;;;5020283;28;20376;-78
2023/02/24 07:38:41;;;;;;;7.63;4.63;;;6.50;57.80;;;;;;5019766;28;20033;-77
2023/02/24 07:41:14;;;;;;;7.93;4.20;;;6.60;58.00;;;;;;5019401;28;20676;-77
2023/02/24 07:43:42;;;;;;;7.07;3.85;;;6.80;58.40;;;;;;5018578;28;20445;-78
2023/02/24 07:46:11;;;;;;;8.07;4.50;;;6.80;58.40;;;;;;5035866;28;20084;-78
2023/02/24 07:48:40;;;;;;;7.20;4.28;;;7.00;59.20;;;;;;5020933;28;20120;-78
2023/02/24 07:51:10;;;;;;;7.35;3.75;;;7.10;58.80;;;;;;5019266;28;20606;-78
2023/02/24 07:53:40;;;;;;;7.40;5.05;;;7.30;59.20;;;;;;5031917;28;20112;-80
2023/02/24 07:56:12;;;;;;;6.28;3.63;;;7.40;59.60;;;;;;5020695;28;20041;-77
2023/02/24 07:58:41;;;;;;;5.80;4.03;;;7.50;59.50;;;;;;5017746;28;20021;-78
2023/02/24 08:01:07;;;;;;;6.45;3.30;;;7.70;60.00;;;;;;5026989;28;20042;-79
2023/02/24 08:03:40;;;;;;;5.47;3.50;;;8.00;60.70;;;;;;5018211;28;20053;-78
2023/02/24 08:06:14;;;;;;;12.45;3.22;;;8.30;61.10;;;;;;5020873;28;20037;-79
2023/02/24 08:08:57;;;;;;;6.07;2.67;;;8.80;61.40;;;;;;5018724;28;20468;-79
2023/02/24 08:11:34;;;;;;;4.60;3.20;;;9.10;61.20;;;;;;5014904;28;20041;-79
2023/02/24 08:14:09;;;;;;;4.60;3.00;;;9.50;61.60;;;;;;5018899;28;20057;-79
2023/02/24 08:16:40;;;;;;;4.85;3.17;;;9.80;61.50;;;;;;5020384;28;20037;-85
2023/02/24 08:19:12;;;;;;;5.18;3.17;;;10.10;61.50;;;;;;5019638;28;20122;-78
2023/02/24 08:21:46;;;;;;;4.30;3.20;;;10.40;61.40;;;;;;5035648;28;20134;-79
2023/02/24 08:24:19;;;;;;;6.03;3.00;;;10.70;61.30;;;;;;5017367;28;20481;-79
2023/02/24 08:27:05;;;;;;;6.57;3.28;;;10.80;60.90;;;;;;5035901;28;20041;-79
2023/02/24 08:29:38;;;;;;;5.97;2.83;;;10.90;60.80;;;;;;5019870;28;20025;-79
2023/02/24 08:32:09;;;;;;;4.05;3.00;;;10.90;60.60;;;;;;5020948;28;20362;-78
2023/02/24 08:34:35;;;;;;;9.30;3.22;;;11.00;60.70;;;;;;5020005;28;20041;-80
2023/02/24 08:37:01;;;;;;;5.78;3.17;;;11.00;60.60;;;;;;5018075;28;20034;-79
2023/02/24 08:39:29;;;;;;;4.60;3.13;;;11.10;60.60;;;;;;5017806;28;20208;-77
2023/02/24 08:41:58;;;;;;;7.43;2.88;;;11.10;60.50;;;;;;5018568;28;20519;-78
2023/02/24 08:44:26;;;;;;;5.05;3.15;;;11.20;60.50;;;;;;5017549;28;20033;-78
2023/02/24 08:46:55;;;;;;;5.57;3.10;;;11.20;60.30;;;;;;5016512;28;20058;-79
2023/02/24 08:49:23;;;;;;;8.63;3.13;;;11.30;60.40;;;;;;5014610;28;20041;-77
2023/02/24 08:51:51;;;;;;;4.00;2.60;;;11.30;60.20;;;;;;5017822;28;20062;-77
2023/02/24 08:54:25;;;;;;;4.25;2.60;;;11.40;60.30;;;;;;5014757;28;20036;-77
2023/02/24 08:56:57;;;;;;;5.53;2.65;;;11.50;60.30;;;;;;5019475;28;20067;-77
2023/02/24 08:59:36;;;;;;;6.00;2.80;;;11.50;60.10;;;;;;5013758;28;20480;-77
2023/02/24 09:04:54;;;;;;;5.50;2.53;;;11.60;59.90;;;;;;5013858;28;20045;-77
2023/02/24 09:07:28;;;;;;;6.18;3.22;;;11.70;59.90;;;;;;5005923;28;20041;-77
2023/02/24 09:09:57;;;;;;;5.30;2.95;;;11.80;60.00;;;;;;5018739;28;20038;-78
2023/02/24 09:12:27;;;;;;;5.85;2.75;;;11.90;59.90;;;;;;5018182;28;20033;-79
2023/02/24 09:15:03;;;;;;;5.85;3.20;;;11.90;59.70;;;;;;5018447;28;20266;-77
2023/02/24 09:17:39;;;;;;;6.75;4.00;;;12.00;59.70;;;;;;5019739;28;20033;-76
2023/02/24 09:23:07;;;;;;;6.55;2.92;;;12.10;59.60;;;;;;5014509;28;20111;-75
2023/02/24 09:25:48;;;;;;;7.22;3.08;;;12.20;59.60;;;;;;5019760;28;20044;-78
2023/02/24 09:28:25;;;;;;;13.38;4.18;;;12.30;59.60;;;;;;5012808;28;20140;-76
2023/02/24 09:30:53;;;;;;;7.03;2.60;;;12.30;59.50;;;;;;5018106;28;20132;-76
2023/02/24 09:33:28;;;;;;;5.28;3.30;;;12.40;59.40;;;;;;5035217;28;20056;-77
2023/02/24 09:36:11;;;;;;;5.32;2.50;;;12.50;59.40;;;;;;5019385;28;20109;-78
2023/02/24 09:44:23;;;;;;;10.18;2.70;;;12.80;59.40;;;;;;5012509;28;20044;-75
2023/02/24 09:46:57;;;;;;;6.40;2.60;;;12.90;59.40;;;;;;5005508;28;20053;-76
2023/02/24 09:49:38;;;;;;;5.10;2.38;;;13.00;59.40;;;;;;5023437;28;20088;-75
2023/02/24 09:52:15;;;;;;;8.18;2.75;;;13.10;59.30;;;;;;5023178;28;20627;-77
2023/02/24 09:58:21;;;;;;;5.15;2.45;;;13.30;59.20;;;;;;5014317;28;20092;-75
2023/02/24 10:00:33;;;;;;;4.72;2.40;;;13.40;59.10;;;;;;5020092;28;20517;-77
2023/02/24 10:03:18;;;;;;;7.57;2.35;;;13.50;59.00;;;;;;5023412;28;20478;-76
2023/02/24 10:05:59;;;;;;;4.25;2.40;;;13.60;59.00;;;;;;5020752;28;20030;-77
2023/02/24 10:08:33;;;;;;;4.97;2.80;;;13.70;59.40;;;;;;5019676;28;20048;-76
2023/02/24 10:11:05;;;;;;;6.65;2.67;;;13.80;58.90;;;;;;5022492;28;20862;-76
2023/02/24 10:13:35;;;;;;;4.78;2.83;;;13.80;58.80;;;;;;5002078;28;20500;-77
2023/02/24 10:16:06;;;;;;;7.10;3.22;;;13.90;58.80;;;;;;5031160;28;20044;-77
2023/02/24 10:18:47;;;;;;;4.43;2.38;;;13.90;58.60;;;;;;5023122;28;20068;-76
2023/02/24 10:21:48;;;;;;;9.45;2.90;;;14.00;58.60;;;;;;5023659;28;20184;-76
2023/02/24 10:24:46;;;;;;;4.95;2.45;;;14.10;58.60;;;;;;5020085;28;20536;-77
2023/02/24 10:27:36;;;;;;;5.82;2.22;;;14.10;58.50;;;;;;5023696;28;20120;-77
2023/02/24 10:30:18;;;;;;;3.78;2.25;;;14.20;58.40;;;;;;5016709;28;20523;-77
2023/02/24 10:32:57;;;;;;;4.60;2.00;;;14.30;58.50;;;;;;5019435;28;20040;-77
2023/02/24 10:35:32;;;;;;;6.80;2.75;;;14.40;58.50;;;;;;5022468;28;20033;-76
2023/02/24 10:38:04;;;;;;;7.20;2.78;;;14.50;58.50;;;;;;5021945;28;20073;-76
2023/02/24 10:40:43;;;;;;;2.92;2.00;;;14.60;58.50;;;;;;5021334;28;20072;-77
2023/02/24 10:43:16;;;;;;;6.80;1.98;;;14.70;58.50;;;;;;5022205;28;20060;-77
2023/02/24 10:45:45;;;;;;;8.57;2.67;;;14.70;58.20;;;;;;5023502;28;20064;-76
2023/02/24 10:48:23;;;;;;;4.35;2.15;;;14.80;58.20;;;;;;5013085;28;20041;-77
2023/02/24 10:50:53;;;;;;;8.25;2.38;;;14.90;58.20;;;;;;5022922;28;20049;-76
2023/02/24 10:53:35;;;;;;;3.35;1.63;;;14.90;58.10;;;;;;5017972;28;20029;-77
2023/02/24 10:56:25;;;;;;;4.67;1.93;;;15.00;58.10;;;;;;5021245;28;20427;-77
2023/02/24 11:02:01;;;;;;;6.63;2.70;;;15.10;57.80;;;;;;5021476;28;20038;-77
2023/02/24 11:07:23;;;;;;;4.60;2.10;;;15.30;58.00;;;;;;5019526;28;20083;-76
2023/02/24 11:10:12;;;;;;;4.20;2.13;;;15.40;57.90;;;;;;5020663;28;20120;-77
2023/02/24 11:18:38;;;;;;;6.22;2.05;;;15.70;57.50;;;;;;5021302;28;20030;-76
2023/02/24 11:21:09;;;;;;;3.63;2.00;;;15.80;57.80;;;;;;5022564;28;20052;-77
2023/02/24 11:23:43;;;;;;;3.03;1.77;;;15.70;57.50;;;;;;5023045;28;20037;-76
2023/02/24 11:26:17;;;;;;;4.10;2.22;;;15.70;57.50;;;;;;5021842;28;20055;-77
2023/02/24 11:29:24;;;;;;;3.92;1.60;;;15.70;57.60;;;;;;5016442;28;20042;-76
2023/02/24 11:32:09;;;;;;;5.78;2.25;;;15.70;57.40;;;;;;5021655;28;20481;-76
2023/02/24 11:35:21;;;;;;;4.78;2.13;;;15.70;57.50;;;;;;5022122;28;20036;-79
2023/02/24 11:37:59;;;;;;;4.95;2.00;;;15.70;57.50;;;;;;5002339;28;20436;-78
2023/02/24 11:40:37;;;;;;;5.75;2.13;;;15.70;57.50;;;;;;5020144;28;20386;-78
2023/02/24 11:43:17;;;;;;;4.03;2.00;;;15.70;57.40;;;;;;5021760;28;20489;-80
2023/02/24 11:45:53;;;;;;;5.60;2.55;;;15.60;57.30;;;;;;5024274;28;20049;-79
2023/02/24 11:48:30;;;;;;;6.35;1.92;;;15.40;56.90;;;;;;5021574;28;20432;-79
2023/02/24 11:51:02;;;;;;;6.07;1.95;;;15.30;56.90;;;;;;5010460;28;20411;-81
2023/02/24 11:53:43;;;;;;;10.93;2.85;;;15.20;56.90;;;;;;5019026;28;20037;-82
2023/02/24 11:56:21;;;;;;;8.98;3.63;;;15.10;56.80;;;;;;5013581;28;20040;-83
2023/02/24 11:58:57;;;;;;;4.88;2.20;;;15.00;56.70;;;;;;5015934;28;20084;-80
2023/02/24 12:01:45;;;;;;;4.47;1.85;;;15.00;56.80;;;;;;5020134;28;20508;-79
2023/02/24 12:04:38;;;;;;;5.97;2.05;;;14.90;56.60;;;;;;5011258;28;20060;-79
2023/02/24 12:07:29;;;;;;;7.60;3.50;;;14.80;56.60;;;;;;5020313;28;20074;-78
2023/02/24 12:09:59;;;;;;;5.35;2.83;;;14.70;56.30;;;;;;5021071;28;20084;-78
2023/02/24 12:12:27;;;;;;;6.90;2.85;;;14.60;56.50;;;;;;5014886;28;20100;-76
2023/02/24 12:14:58;;;;;;;12.10;10.02;;;14.50;56.40;;;;;;5030821;28;20459;-77
2023/02/24 12:17:38;;;;;;;10.52;7.50;;;14.50;56.50;;;;;;5021470;28;20037;-75
2023/02/24 12:20:18;;;;;;;12.85;8.07;;;14.40;56.40;;;;;;5020622;28;20040;-78
2023/02/24 12:22:54;;;;;;;11.02;7.93;;;14.40;56.50;;;;;;5036392;28;20358;-75
2023/02/24 12:25:28;;;;;;;11.32;8.52;;;14.30;56.40;;;;;;5009253;28;20029;-76
2023/02/24 12:28:09;;;;;;;11.73;8.98;;;14.30;56.50;;;;;;5013325;28;20189;-79
2023/02/24 12:30:47;;;;;;;12.30;8.55;;;14.30;56.60;;;;;;5020514;28;20562;-80
2023/02/24 12:33:16;;;;;;;11.60;9.55;;;14.20;56.50;;;;;;5009965;28;20326;-79
2023/02/24 12:36:15;;;;;;;10.77;8.07;;;14.10;56.50;;;;;;5019994;28;20061;-79
2023/02/24 12:38:59;;;;;;;12.77;7.90;;;14.10;56.50;;;;;;5028666;28;20042;-80
2023/02/24 12:41:28;;;;;;;10.57;8.07;;;14.10;56.80;;;;;;5027540;28;20057;-78
2023/02/24 12:44:17;;;;;;;9.23;7.88;;;14.10;56.90;;;;;;5018981;28;20041;-78
2023/02/24 12:46:50;;;;;;;10.70;9.20;;;14.10;56.90;;;;;;5036234;28;20303;-78
2023/02/24 12:49:21;;;;;;;16.30;8.87;;;14.10;57.00;;;;;;5020564;28;20034;-78
2023/02/24 12:51:47;;;;;;;12.50;7.37;;;14.20;57.10;;;;;;5021122;28;20040;-80
2023/02/24 12:54:28;;;;;;;12.35;7.32;;;14.30;57.10;;;;;;5010931;28;20029;-78
2023/02/24 12:57:16;;;;;;;10.73;7.00;;;14.40;57.00;;;;;;5021028;28;20493;-78
2023/02/24 12:59:42;;;;;;;7.65;6.22;;;14.50;56.90;;;;;;5014723;28;20124;-77
2023/02/24 13:02:22;;;;;;;11.30;6.28;;;14.60;56.90;;;;;;5018661;28;20515;-78
2023/02/24 13:05:23;;;;;;;9.88;7.07;;;14.70;57.00;;;;;;5020760;28;20401;-77
2023/02/24 13:08:07;;;;;;;9.43;6.40;;;14.80;56.90;;;;;;4991852;28;20034;-76
2023/02/24 13:10:46;;;;;;;7.95;5.65;;;14.90;57.00;;;;;;5034585;28;20445;-79
2023/02/24 13:13:28;;;;;;;6.18;4.90;;;14.90;56.90;;;;;;5019421;28;20055;-79
2023/02/24 13:15:57;;;;;;;8.95;5.70;;;15.00;57.00;;;;;;5014003;28;20033;-77
2023/02/24 13:18:34;;;;;;;6.38;5.30;;;15.10;57.00;;;;;;5018797;28;20500;-82
2023/02/24 13:21:07;;;;;;;7.18;5.03;;;15.00;56.80;;;;;;5020908;28;20503;-76
2023/02/24 13:23:39;;;;;;;6.25;4.05;;;15.10;56.90;;;;;;5016223;28;20107;-79
2023/02/24 13:26:05;;;;;;;8.30;5.07;;;15.10;57.00;;;;;;5011150;28;20038;-79
2023/02/24 13:28:35;;;;;;;8.05;4.30;;;15.00;56.80;;;;;;5017576;28;20040;-75
2023/02/24 13:31:06;;;;;;;6.72;4.07;;;15.00;56.80;;;;;;5015884;28;20087;-76
2023/02/24 13:33:43;;;;;;;7.57;4.03;;;15.10;57.00;;;;;;5035987;28;20049;-76
2023/02/24 13:36:15;;;;;;;7.65;3.58;;;15.10;57.00;;;;;;5018562;28;20030;-75
2023/02/24 13:39:01;;;;;;;9.38;4.00;;;15.10;57.00;;;;;;5016481;28;20040;-77
2023/02/24 13:41:27;;;;;;;6.07;3.20;;;15.20;57.10;;;;;;5018819;28;20421;-77
2023/02/24 13:43:53;;;;;;;5.90;3.63;;;15.20;57.00;;;;;;5016797;28;20033;-78
2023/02/24 13:46:20;;;;;;;8.90;3.90;;;15.30;57.20;;;;;;5019832;28;20077;-76
2023/02/24 13:48:55;;;;;;;6.85;4.22;;;15.30;57.10;;;;;;5017200;28;20532;-77
2023/02/24 13:51:32;;;;;;;5.25;3.22;;;15.30;56.90;;;;;;5018294;28;20051;-77
2023/02/24 13:54:37;;;;;;;4.13;3.00;;;15.40;57.00;;;;;;5014225;28;20318;-77
2023/02/24 13:57:21;;;;;;;4.07;2.35;;;15.40;56.70;;;;;;5008996;28;20430;-77
2023/02/24 14:00:21;;;;;;;5.15;3.03;;;15.50;56.90;;;;;;5016032;28;20041;-76
2023/02/24 14:02:51;;;;;;;6.25;2.88;;;15.60;56.80;;;;;;5017598;28;20052;-77